Blue Star Naxos — SZUI — position and weather

sailwx.info

Track history (hours):
 
Tides and Currents Weather Stations Pressure Air Temp Water Temp Dewpoint Dewpoint Depression Visibility Wind Speed Wind Dir Waves Ship Positions

Blue Star Naxos

Last reported at 2017-Oct-18 15:38 UTC. Time now 2017-Oct-18 16:57 UTC.
Position N 37°38' E 023°48'.

Length 124 m; draft 5 m.

Type: Passenger vessel. MMSI: 239923000.

Date/timePositionNaut miles runAvg speedWind from/ knotsBaromVisibWave heightAir tempDewpointWater temp
2017-Oct-18 15:38N 37°38' E 023°48'321.9
2017-Oct-18 15:30N 37°39' E 023°45'1121.5
2017-Oct-18 15:00N 37°48' E 023°38'9 8.9
2017-Oct-18 14:01N 37°57' E 023°38'0 0.0
2017-Oct-18 13:30N 37°57' E 023°38'0 0.0
2017-Oct-18 13:00N 37°57' E 023°38'0 0.0
2017-Oct-18 12:30N 37°57' E 023°38'0 0.9
2017-Oct-18 12:00N 37°56' E 023°38'917.7
2017-Oct-18 11:30N 37°48' E 023°42'1121.7
2017-Oct-18 11:00N 37°40' E 023°51'4922.1
2017-Oct-18 08:48N 37°18' E 024°46'722.8
2017-Oct-18 08:31N 37°14' E 024°52'1122.4
2017-Oct-18 08:01N 37°08' E 025°04'5 8.1
2017-Oct-18 07:24N 37°05' E 025°09'512.2
2017-Oct-18 07:00N 37°09' E 025°13'816.3
2017-Oct-18 06:30N 37°06' E 025°22'3 5.4
2017-Oct-18 06:00N 37°05' E 025°19'6 0.7
2017-Oct-17 22:15N 36°59' E 025°21'518.5
2017-Oct-17 22:00N 37°03' E 025°18'4 8.8
2017-Oct-17 21:30N 37°06' E 025°22'3 6.3
2017-Oct-17 21:00N 37°09' E 025°19'918.8
2017-Oct-17 20:30N 37°06' E 025°08'1 2.4
2017-Oct-17 19:59N 37°05' E 025°09'919.6
2017-Oct-17 19:30N 37°14' E 025°04'1122.1
2017-Oct-17 19:00N 37°24' E 024°59'3 5.2
2017-Oct-17 18:30N 37°26' E 024°57'816.0
2017-Oct-17 18:00N 37°32' E 024°49'5021.0
2017-Oct-17 15:38N 37°38' E 023°47'321.6
2017-Oct-17 15:30N 37°39' E 023°44'1121.8
2017-Oct-17 15:00N 37°49' E 023°38'814.9
2017-Oct-17 14:29N 37°57' E 023°38'0 0.0
2017-Oct-17 13:53N 37°57' E 023°38'0 0.0
2017-Oct-17 13:30N 37°57' E 023°38'0 0.0
2017-Oct-17 13:00N 37°57' E 023°38'0 0.0
2017-Oct-17 12:29N 37°57' E 023°38'2 4.2
2017-Oct-17 12:00N 37°55' E 023°37'1121.8
2017-Oct-17 11:30N 37°45' E 023°43'6421.3
2017-Oct-17 08:31N 37°11' E 024°51'018.3
2017-Oct-17 08:31N 37°11' E 024°51'1122.6
2017-Oct-17 08:00N 37°07' E 025°04'4 5.9
2017-Oct-17 07:22N 37°05' E 025°09'515.2
2017-Oct-17 07:01N 37°09' E 025°13'816.1
2017-Oct-17 06:30N 37°06' E 025°22'611.3
2017-Oct-17 06:00N 37°10' E 025°27'918.2
2017-Oct-17 05:30N 37°10' E 025°39'5 0.7
2017-Oct-16 21:50N 37°07' E 025°44'1320.2
2017-Oct-16 21:13N 37°12' E 025°30'420.5
2017-Oct-16 21:00N 37°10' E 025°26'5 9.2
2017-Oct-16 20:31N 37°06' E 025°22'612.5
2017-Oct-16 20:00N 37°10' E 025°16'8 9.0
2017-Oct-16 19:08N 37°05' E 025°09'216.3
2017-Oct-16 19:01N 37°06' E 025°06'1020.9
2017-Oct-16 18:31N 37°10' E 024°54'6221.0
2017-Oct-16 15:35N 37°38' E 023°45'221.9
2017-Oct-16 15:29N 37°39' E 023°43'1021.9
2017-Oct-16 15:01N 37°49' E 023°38'816.2
2017-Oct-16 14:30N 37°57' E 023°38'0 0.0
2017-Oct-16 13:30N 37°57' E 023°38'0 0.0
2017-Oct-16 13:00N 37°57' E 023°38'0 0.0
2017-Oct-16 12:30N 37°57' E 023°38'2 3.6
2017-Oct-16 12:01N 37°56' E 023°37'1121.4
2017-Oct-16 11:30N 37°46' E 023°43'6521.5
2017-Oct-16 08:29N 37°10' E 024°51'1122.7
2017-Oct-16 08:01N 37°07' E 025°04'4 6.4
2017-Oct-16 07:24N 37°05' E 025°08'513.5
2017-Oct-16 07:00N 37°09' E 025°13'816.6
2017-Oct-16 06:30N 37°06' E 025°22'4 7.6
2017-Oct-16 06:00N 37°04' E 025°19'5 0.6
2017-Oct-15 22:29N 36°59' E 025°21'715.1
2017-Oct-15 22:00N 37°06' E 025°22'2 3.3
2017-Oct-15 21:30N 37°07' E 025°21'916.6
2017-Oct-15 20:58N 37°08' E 025°09'3 3.4
2017-Oct-15 20:07N 37°05' E 025°09'213.6
2017-Oct-15 20:01N 37°06' E 025°07'1121.4
2017-Oct-15 19:30N 37°16' E 025°03'1121.7
2017-Oct-15 19:01N 37°26' E 024°58'2 4.1
2017-Oct-15 18:30N 37°28' E 024°58'1020.6
2017-Oct-15 18:00N 37°34' E 024°47'4720.8
2017-Oct-15 15:46N 37°38' E 023°48'620.4
2017-Oct-15 15:28N 37°41' E 023°42'1022.1
2017-Oct-15 15:00N 37°51' E 023°37'6 6.2
2017-Oct-15 14:00N 37°57' E 023°38'0 0.0
2017-Oct-15 13:30N 37°57' E 023°38'0 0.0
2017-Oct-15 13:00N 37°57' E 023°38'0 0.0
2017-Oct-15 12:30N 37°57' E 023°38'2 3.8
2017-Oct-15 12:00N 37°56' E 023°37'1121.7
2017-Oct-15 11:31N 37°46' E 023°43'6221.2
2017-Oct-15 08:34N 37°13' E 024°49'122.8
2017-Oct-15 08:30N 37°12' E 024°51'1121.9
2017-Oct-15 08:00N 37°08' E 025°03'5 7.3
2017-Oct-15 07:21N 37°05' E 025°09'515.4
2017-Oct-15 07:00N 37°09' E 025°13'816.3
2017-Oct-15 06:30N 37°06' E 025°22'510.9
2017-Oct-15 06:01N 37°02' E 025°18'3 0.3
2017-Oct-14 20:50N 36°59' E 025°19'618.9
2017-Oct-14 20:30N 37°05' E 025°19'2 3.4
2017-Oct-14 20:01N 37°06' E 025°21'1016.9
2017-Oct-14 19:25N 37°07' E 025°09'2 5.2
2017-Oct-14 18:58N 37°05' E 025°08'1021.2
2017-Oct-14 18:30N 37°09' E 024°57'6421.2
2017-Oct-14 15:29N 37°39' E 023°45'1021.9
2017-Oct-14 15:00N 37°48' E 023°38'918.5
2017-Oct-14 14:31N 37°57' E 023°38'0 0.2
2017-Oct-14 14:00N 37°57' E 023°38'0 0.0
2017-Oct-14 13:30N 37°57' E 023°38'0 0.0
2017-Oct-14 13:00N 37°57' E 023°38'0 0.0
2017-Oct-14 12:30N 37°57' E 023°38'2 3.8
2017-Oct-14 12:00N 37°55' E 023°37'1121.6
2017-Oct-14 11:30N 37°46' E 023°43'6421.4
2017-Oct-14 08:31N 37°11' E 024°51'023.1
2017-Oct-14 08:30N 37°11' E 024°51'1122.2
2017-Oct-14 08:00N 37°07' E 025°04'1410.2
2017-Oct-14 06:36N 37°06' E 025°22'0 1.9
2017-Oct-14 06:30N 37°06' E 025°22'3 6.4
2017-Oct-14 06:00N 37°04' E 025°19'5 0.6
2017-Oct-13 21:25N 36°59' E 025°21'717.5
2017-Oct-13 21:00N 37°06' E 025°20'2 3.4
2017-Oct-13 20:30N 37°06' E 025°22'612.5
2017-Oct-13 20:00N 37°10' E 025°16'8 8.2
2017-Oct-13 19:04N 37°05' E 025°08'115.7
2017-Oct-13 19:00N 37°05' E 025°07'1021.0
2017-Oct-13 18:30N 37°09' E 024°55'6321.1
2017-Oct-13 15:30N 37°39' E 023°45'1121.6
2017-Oct-13 15:01N 37°48' E 023°38'917.6
2017-Oct-13 14:30N 37°57' E 023°38'0 0.1
2017-Oct-13 14:00N 37°57' E 023°38'0 0.0
2017-Oct-13 13:30N 37°57' E 023°38'0 0.0
2017-Oct-13 13:00N 37°57' E 023°38'0 0.0
2017-Oct-13 12:30N 37°57' E 023°38'2 3.8
2017-Oct-13 12:00N 37°55' E 023°37'1121.8
2017-Oct-13 11:30N 37°45' E 023°43'6521.4
2017-Oct-13 08:29N 37°10' E 024°51'1122.2
2017-Oct-13 08:01N 37°07' E 025°04'4 5.8
2017-Oct-13 07:18N 37°05' E 025°09'414.0
2017-Oct-13 06:59N 37°09' E 025°12'918.0
2017-Oct-13 06:30N 37°06' E 025°22'1 2.0
2017-Oct-13 06:00N 37°07' E 025°23'1218.2
2017-Oct-13 05:20N 37°10' E 025°38'6 1.0
2017-Oct-12 23:19N 37°07' E 025°44'1320.6
2017-Oct-12 22:42N 37°12' E 025°30'421.5
2017-Oct-12 22:30N 37°10' E 025°26'4 8.9
2017-Oct-12 22:00N 37°06' E 025°22'4 7.5
2017-Oct-12 21:31N 37°09' E 025°19'918.2
2017-Oct-12 21:00N 37°07' E 025°08'1 2.3
2017-Oct-12 20:24N 37°05' E 025°09'718.9
2017-Oct-12 20:01N 37°12' E 025°04'1121.1
2017-Oct-12 19:30N 37°22' E 024°60'510.6
2017-Oct-12 19:00N 37°26' E 024°57'2 3.9
2017-Oct-12 18:31N 37°28' E 024°57'1019.1
2017-Oct-12 18:00N 37°32' E 024°46'4820.8
2017-Oct-12 15:42N 37°39' E 023°46'620.0
2017-Oct-12 15:25N 37°43' E 023°41'921.5
2017-Oct-12 15:00N 37°51' E 023°37'612.2
2017-Oct-12 14:30N 37°57' E 023°38'0 0.0
2017-Oct-12 14:00N 37°57' E 023°38'0 0.0
2017-Oct-12 13:30N 37°57' E 023°38'0 0.0
2017-Oct-12 13:00N 37°57' E 023°38'0 0.0
2017-Oct-12 12:30N 37°57' E 023°38'2 4.2
2017-Oct-12 12:01N 37°55' E 023°37'1121.7
2017-Oct-12 11:30N 37°45' E 023°43'6521.3
2017-Oct-12 08:29N 37°10' E 024°51'1022.1
2017-Oct-12 08:00N 37°07' E 025°04'4 7.1
2017-Oct-12 07:26N 37°05' E 025°08'717.1
2017-Oct-12 07:00N 37°10' E 025°15'713.3
2017-Oct-12 06:30N 37°06' E 025°22'714.0
2017-Oct-12 06:00N 37°11' E 025°29'918.9
2017-Oct-12 05:30N 37°09' E 025°40'4 0.5
2017-Oct-11 21:48N 37°07' E 025°44'621.1
2017-Oct-11 21:30N 37°10' E 025°38'917.7
2017-Oct-11 21:01N 37°10' E 025°26'510.4
2017-Oct-11 20:31N 37°06' E 025°22'5 9.9
2017-Oct-11 20:01N 37°10' E 025°18'918.0
2017-Oct-11 19:29N 37°05' E 025°08'1 1.1
2017-Oct-11 19:00N 37°05' E 025°08'1020.6
2017-Oct-11 18:30N 37°09' E 024°56'22 1.1
2017-Oct-10 22:20N 36°59' E 025°20'617.6
2017-Oct-10 22:00N 37°05' E 025°19'3 6.4
2017-Oct-10 21:30N 37°06' E 025°22'5 9.0
2017-Oct-10 21:01N 37°10' E 025°18'1019.3
2017-Oct-10 20:30N 37°06' E 025°07'1 1.8
2017-Oct-10 19:57N 37°05' E 025°09'818.9
2017-Oct-10 19:31N 37°13' E 025°04'1122.1
2017-Oct-10 19:01N 37°23' E 024°59'4 7.4
2017-Oct-10 18:30N 37°26' E 024°57'612.6
2017-Oct-10 18:00N 37°31' E 024°52'5121.5
2017-Oct-10 15:39N 37°38' E 023°48'321.7
2017-Oct-10 15:30N 37°39' E 023°45'1121.2
2017-Oct-10 15:00N 37°48' E 023°38'9 7.3
2017-Oct-10 13:49N 37°57' E 023°38'0 0.0
2017-Oct-10 13:30N 37°57' E 023°38'0 0.0
2017-Oct-10 13:00N 37°57' E 023°38'0 0.0
2017-Oct-10 12:30N 37°57' E 023°38'1 1.5
2017-Oct-10 12:00N 37°56' E 023°38'918.6
2017-Oct-10 11:30N 37°48' E 023°42'1121.7
2017-Oct-10 11:00N 37°39' E 023°50'4921.9
2017-Oct-10 08:47N 37°18' E 024°46'622.6
2017-Oct-10 08:30N 37°14' E 024°52'1122.9
2017-Oct-10 08:00N 37°08' E 025°04'5 5.9
2017-Oct-10 07:14N 37°05' E 025°08'415.9
2017-Oct-10 06:57N 37°09' E 025°12'819.0
2017-Oct-10 06:30N 37°06' E 025°22'1 2.6
2017-Oct-10 06:01N 37°07' E 025°23'1217.9
2017-Oct-10 05:21N 37°10' E 025°37'6 0.8
2017-Oct-09 22:00N 37°07' E 025°44'1019.3
2017-Oct-09 21:28N 37°12' E 025°34'817.7
2017-Oct-09 21:01N 37°09' E 025°24'3 6.3
2017-Oct-09 20:31N 37°06' E 025°22'612.0
2017-Oct-09 20:00N 37°10' E 025°16'8 8.3
2017-Oct-09 19:04N 37°05' E 025°09'114.6
2017-Oct-09 19:00N 37°05' E 025°08'1121.1
2017-Oct-09 18:30N 37°12' E 024°57'1121.3
2017-Oct-09 18:00N 37°18' E 024°46'5121.1
2017-Oct-09 15:35N 37°38' E 023°47'221.9
2017-Oct-09 15:30N 37°39' E 023°45'1021.1
2017-Oct-09 15:00N 37°48' E 023°38'917.7
2017-Oct-09 14:30N 37°57' E 023°38'0 0.1
2017-Oct-09 14:00N 37°57' E 023°38'0 0.0
2017-Oct-09 13:30N 37°57' E 023°38'0 0.0
2017-Oct-09 13:00N 37°57' E 023°38'0 0.0
2017-Oct-09 12:30N 37°57' E 023°38'1 2.8
2017-Oct-09 12:01N 37°56' E 023°37'1020.3
2017-Oct-09 11:30N 37°47' E 023°42'5721.3
2017-Oct-09 08:49N 37°19' E 024°45'722.4
2017-Oct-09 08:30N 37°15' E 024°52'1122.5
2017-Oct-09 08:00N 37°08' E 025°04'5 7.2
2017-Oct-09 07:21N 37°05' E 025°09'512.8
2017-Oct-09 07:00N 37°09' E 025°12'816.8
2017-Oct-09 06:31N 37°06' E 025°22'3 6.8
2017-Oct-09 06:00N 37°04' E 025°19'5 0.6
2017-Oct-08 21:44N 36°59' E 025°21'419.1
2017-Oct-08 21:30N 37°03' E 025°18'5 9.7
2017-Oct-08 21:00N 37°06' E 025°22'816.5
2017-Oct-08 20:30N 37°10' E 025°13'5 8.2
2017-Oct-08 19:51N 37°05' E 025°09'619.0
2017-Oct-08 19:31N 37°11' E 025°05'1122.2
2017-Oct-08 19:00N 37°21' E 024°60'6 9.9
2017-Oct-08 18:27N 37°26' E 024°57'613.4
2017-Oct-08 17:59N 37°32' E 024°52'  
Track history (hours):
 
Tides and Currents Weather Stations Pressure Air Temp Water Temp Dewpoint Dewpoint Depression Visibility Wind Speed Wind Dir Waves Ship Positions

Blue Star Naxos

Last reported at 2017-Oct-18 15:38 UTC. Time now 2017-Oct-18 16:57 UTC.
Position N 37°38' E 023°48'.

Length 124 m; draft 5 m.

Type: Passenger vessel. MMSI: 239923000.

Date/timePositionNaut miles runAvg speedWind from/ knotsBaromVisibWave heightAir tempDewpointWater temp
2017-Oct-18 15:38N 37°38' E 023°48'321.9
2017-Oct-18 15:30N 37°39' E 023°45'1121.5
2017-Oct-18 15:00N 37°48' E 023°38'9 8.9
2017-Oct-18 14:01N 37°57' E 023°38'0 0.0
2017-Oct-18 13:30N 37°57' E 023°38'0 0.0
2017-Oct-18 13:00N 37°57' E 023°38'0 0.0
2017-Oct-18 12:30N 37°57' E 023°38'0 0.9
2017-Oct-18 12:00N 37°56' E 023°38'917.7
2017-Oct-18 11:30N 37°48' E 023°42'1121.7
2017-Oct-18 11:00N 37°40' E 023°51'4922.1
2017-Oct-18 08:48N 37°18' E 024°46'722.8
2017-Oct-18 08:31N 37°14' E 024°52'1122.4
2017-Oct-18 08:01N 37°08' E 025°04'5 8.1
2017-Oct-18 07:24N 37°05' E 025°09'512.2
2017-Oct-18 07:00N 37°09' E 025°13'816.3
2017-Oct-18 06:30N 37°06' E 025°22'3 5.4
2017-Oct-18 06:00N 37°05' E 025°19'6 0.7
2017-Oct-17 22:15N 36°59' E 025°21'518.5
2017-Oct-17 22:00N 37°03' E 025°18'4 8.8
2017-Oct-17 21:30N 37°06' E 025°22'3 6.3
2017-Oct-17 21:00N 37°09' E 025°19'918.8
2017-Oct-17 20:30N 37°06' E 025°08'1 2.4
2017-Oct-17 19:59N 37°05' E 025°09'919.6
2017-Oct-17 19:30N 37°14' E 025°04'1122.1
2017-Oct-17 19:00N 37°24' E 024°59'3 5.2
2017-Oct-17 18:30N 37°26' E 024°57'816.0
2017-Oct-17 18:00N 37°32' E 024°49'5021.0
2017-Oct-17 15:38N 37°38' E 023°47'321.6
2017-Oct-17 15:30N 37°39' E 023°44'1121.8
2017-Oct-17 15:00N 37°49' E 023°38'814.9
2017-Oct-17 14:29N 37°57' E 023°38'0 0.0
2017-Oct-17 13:53N 37°57' E 023°38'0 0.0
2017-Oct-17 13:30N 37°57' E 023°38'0 0.0
2017-Oct-17 13:00N 37°57' E 023°38'0 0.0
2017-Oct-17 12:29N 37°57' E 023°38'2 4.2
2017-Oct-17 12:00N 37°55' E 023°37'1121.8
2017-Oct-17 11:30N 37°45' E 023°43'6421.3
2017-Oct-17 08:31N 37°11' E 024°51'018.3
2017-Oct-17 08:31N 37°11' E 024°51'1122.6
2017-Oct-17 08:00N 37°07' E 025°04'4 5.9
2017-Oct-17 07:22N 37°05' E 025°09'515.2
2017-Oct-17 07:01N 37°09' E 025°13'816.1
2017-Oct-17 06:30N 37°06' E 025°22'611.3
2017-Oct-17 06:00N 37°10' E 025°27'918.2
2017-Oct-17 05:30N 37°10' E 025°39'5 0.7
2017-Oct-16 21:50N 37°07' E 025°44'1320.2
2017-Oct-16 21:13N 37°12' E 025°30'420.5
2017-Oct-16 21:00N 37°10' E 025°26'5 9.2
2017-Oct-16 20:31N 37°06' E 025°22'612.5
2017-Oct-16 20:00N 37°10' E 025°16'8 9.0
2017-Oct-16 19:08N 37°05' E 025°09'216.3
2017-Oct-16 19:01N 37°06' E 025°06'1020.9
2017-Oct-16 18:31N 37°10' E 024°54'6221.0
2017-Oct-16 15:35N 37°38' E 023°45'221.9
2017-Oct-16 15:29N 37°39' E 023°43'1021.9
2017-Oct-16 15:01N 37°49' E 023°38'816.2
2017-Oct-16 14:30N 37°57' E 023°38'0 0.0
2017-Oct-16 13:30N 37°57' E 023°38'0 0.0
2017-Oct-16 13:00N 37°57' E 023°38'0 0.0
2017-Oct-16 12:30N 37°57' E 023°38'2 3.6
2017-Oct-16 12:01N 37°56' E 023°37'1121.4
2017-Oct-16 11:30N 37°46' E 023°43'6521.5
2017-Oct-16 08:29N 37°10' E 024°51'1122.7
2017-Oct-16 08:01N 37°07' E 025°04'4 6.4
2017-Oct-16 07:24N 37°05' E 025°08'513.5
2017-Oct-16 07:00N 37°09' E 025°13'816.6
2017-Oct-16 06:30N 37°06' E 025°22'4 7.6
2017-Oct-16 06:00N 37°04' E 025°19'5 0.6
2017-Oct-15 22:29N 36°59' E 025°21'715.1
2017-Oct-15 22:00N 37°06' E 025°22'2 3.3
2017-Oct-15 21:30N 37°07' E 025°21'916.6
2017-Oct-15 20:58N 37°08' E 025°09'3 3.4
2017-Oct-15 20:07N 37°05' E 025°09'213.6
2017-Oct-15 20:01N 37°06' E 025°07'1121.4
2017-Oct-15 19:30N 37°16' E 025°03'1121.7
2017-Oct-15 19:01N 37°26' E 024°58'2 4.1
2017-Oct-15 18:30N 37°28' E 024°58'1020.6
2017-Oct-15 18:00N 37°34' E 024°47'4720.8
2017-Oct-15 15:46N 37°38' E 023°48'620.4
2017-Oct-15 15:28N 37°41' E 023°42'1022.1
2017-Oct-15 15:00N 37°51' E 023°37'6 6.2
2017-Oct-15 14:00N 37°57' E 023°38'0 0.0
2017-Oct-15 13:30N 37°57' E 023°38'0 0.0
2017-Oct-15 13:00N 37°57' E 023°38'0 0.0
2017-Oct-15 12:30N 37°57' E 023°38'2 3.8
2017-Oct-15 12:00N 37°56' E 023°37'1121.7
2017-Oct-15 11:31N 37°46' E 023°43'6221.2
2017-Oct-15 08:34N 37°13' E 024°49'122.8
2017-Oct-15 08:30N 37°12' E 024°51'1121.9
2017-Oct-15 08:00N 37°08' E 025°03'5 7.3
2017-Oct-15 07:21N 37°05' E 025°09'515.4
2017-Oct-15 07:00N 37°09' E 025°13'816.3
2017-Oct-15 06:30N 37°06' E 025°22'510.9
2017-Oct-15 06:01N 37°02' E 025°18'3 0.3
2017-Oct-14 20:50N 36°59' E 025°19'618.9
2017-Oct-14 20:30N 37°05' E 025°19'2 3.4
2017-Oct-14 20:01N 37°06' E 025°21'1016.9
2017-Oct-14 19:25N 37°07' E 025°09'2 5.2
2017-Oct-14 18:58N 37°05' E 025°08'1021.2
2017-Oct-14 18:30N 37°09' E 024°57'6421.2
2017-Oct-14 15:29N 37°39' E 023°45'1021.9
2017-Oct-14 15:00N 37°48' E 023°38'918.5
2017-Oct-14 14:31N 37°57' E 023°38'0 0.2
2017-Oct-14 14:00N 37°57' E 023°38'0 0.0
2017-Oct-14 13:30N 37°57' E 023°38'0 0.0
2017-Oct-14 13:00N 37°57' E 023°38'0 0.0
2017-Oct-14 12:30N 37°57' E 023°38'2 3.8
2017-Oct-14 12:00N 37°55' E 023°37'1121.6
2017-Oct-14 11:30N 37°46' E 023°43'6421.4
2017-Oct-14 08:31N 37°11' E 024°51'023.1
2017-Oct-14 08:30N 37°11' E 024°51'1122.2
2017-Oct-14 08:00N 37°07' E 025°04'1410.2
2017-Oct-14 06:36N 37°06' E 025°22'0 1.9
2017-Oct-14 06:30N 37°06' E 025°22'3 6.4
2017-Oct-14 06:00N 37°04' E 025°19'5 0.6
2017-Oct-13 21:25N 36°59' E 025°21'717.5
2017-Oct-13 21:00N 37°06' E 025°20'2 3.4
2017-Oct-13 20:30N 37°06' E 025°22'612.5
2017-Oct-13 20:00N 37°10' E 025°16'8 8.2
2017-Oct-13 19:04N 37°05' E 025°08'115.7
2017-Oct-13 19:00N 37°05' E 025°07'1021.0
2017-Oct-13 18:30N 37°09' E 024°55'6321.1
2017-Oct-13 15:30N 37°39' E 023°45'1121.6
2017-Oct-13 15:01N 37°48' E 023°38'917.6
2017-Oct-13 14:30N 37°57' E 023°38'0 0.1
2017-Oct-13 14:00N 37°57' E 023°38'0 0.0
2017-Oct-13 13:30N 37°57' E 023°38'0 0.0
2017-Oct-13 13:00N 37°57' E 023°38'0 0.0
2017-Oct-13 12:30N 37°57' E 023°38'2 3.8
2017-Oct-13 12:00N 37°55' E 023°37'1121.8
2017-Oct-13 11:30N 37°45' E 023°43'6521.4
2017-Oct-13 08:29N 37°10' E 024°51'1122.2
2017-Oct-13 08:01N 37°07' E 025°04'4 5.8
2017-Oct-13 07:18N 37°05' E 025°09'414.0
2017-Oct-13 06:59N 37°09' E 025°12'918.0
2017-Oct-13 06:30N 37°06' E 025°22'1 2.0
2017-Oct-13 06:00N 37°07' E 025°23'1218.2
2017-Oct-13 05:20N 37°10' E 025°38'6 1.0
2017-Oct-12 23:19N 37°07' E 025°44'1320.6
2017-Oct-12 22:42N 37°12' E 025°30'421.5
2017-Oct-12 22:30N 37°10' E 025°26'4 8.9
2017-Oct-12 22:00N 37°06' E 025°22'4 7.5
2017-Oct-12 21:31N 37°09' E 025°19'918.2
2017-Oct-12 21:00N 37°07' E 025°08'1 2.3
2017-Oct-12 20:24N 37°05' E 025°09'718.9
2017-Oct-12 20:01N 37°12' E 025°04'1121.1
2017-Oct-12 19:30N 37°22' E 024°60'510.6
2017-Oct-12 19:00N 37°26' E 024°57'2 3.9
2017-Oct-12 18:31N 37°28' E 024°57'1019.1
2017-Oct-12 18:00N 37°32' E 024°46'4820.8
2017-Oct-12 15:42N 37°39' E 023°46'620.0
2017-Oct-12 15:25N 37°43' E 023°41'921.5
2017-Oct-12 15:00N 37°51' E 023°37'612.2
2017-Oct-12 14:30N 37°57' E 023°38'0 0.0
2017-Oct-12 14:00N 37°57' E 023°38'0 0.0
2017-Oct-12 13:30N 37°57' E 023°38'0 0.0
2017-Oct-12 13:00N 37°57' E 023°38'0 0.0
2017-Oct-12 12:30N 37°57' E 023°38'2 4.2
2017-Oct-12 12:01N 37°55' E 023°37'1121.7
2017-Oct-12 11:30N 37°45' E 023°43'6521.3
2017-Oct-12 08:29N 37°10' E 024°51'1022.1
2017-Oct-12 08:00N 37°07' E 025°04'4 7.1
2017-Oct-12 07:26N 37°05' E 025°08'717.1
2017-Oct-12 07:00N 37°10' E 025°15'713.3
2017-Oct-12 06:30N 37°06' E 025°22'714.0
2017-Oct-12 06:00N 37°11' E 025°29'918.9
2017-Oct-12 05:30N 37°09' E 025°40'4 0.5
2017-Oct-11 21:48N 37°07' E 025°44'621.1
2017-Oct-11 21:30N 37°10' E 025°38'917.7
2017-Oct-11 21:01N 37°10' E 025°26'510.4
2017-Oct-11 20:31N 37°06' E 025°22'5 9.9
2017-Oct-11 20:01N 37°10' E 025°18'918.0
2017-Oct-11 19:29N 37°05' E 025°08'1 1.1
2017-Oct-11 19:00N 37°05' E 025°08'1020.6
2017-Oct-11 18:30N 37°09' E 024°56'22 1.1
2017-Oct-10 22:20N 36°59' E 025°20'617.6
2017-Oct-10 22:00N 37°05' E 025°19'3 6.4
2017-Oct-10 21:30N 37°06' E 025°22'5 9.0
2017-Oct-10 21:01N 37°10' E 025°18'1019.3
2017-Oct-10 20:30N 37°06' E 025°07'1 1.8
2017-Oct-10 19:57N 37°05' E 025°09'818.9
2017-Oct-10 19:31N 37°13' E 025°04'1122.1
2017-Oct-10 19:01N 37°23' E 024°59'4 7.4
2017-Oct-10 18:30N 37°26' E 024°57'612.6
2017-Oct-10 18:00N 37°31' E 024°52'5121.5
2017-Oct-10 15:39N 37°38' E 023°48'321.7
2017-Oct-10 15:30N 37°39' E 023°45'1121.2
2017-Oct-10 15:00N 37°48' E 023°38'9 7.3
2017-Oct-10 13:49N 37°57' E 023°38'0 0.0
2017-Oct-10 13:30N 37°57' E 023°38'0 0.0
2017-Oct-10 13:00N 37°57' E 023°38'0 0.0
2017-Oct-10 12:30N 37°57' E 023°38'1 1.5
2017-Oct-10 12:00N 37°56' E 023°38'918.6
2017-Oct-10 11:30N 37°48' E 023°42'1121.7
2017-Oct-10 11:00N 37°39' E 023°50'4921.9
2017-Oct-10 08:47N 37°18' E 024°46'622.6
2017-Oct-10 08:30N 37°14' E 024°52'1122.9
2017-Oct-10 08:00N 37°08' E 025°04'5 5.9
2017-Oct-10 07:14N 37°05' E 025°08'415.9
2017-Oct-10 06:57N 37°09' E 025°12'819.0
2017-Oct-10 06:30N 37°06' E 025°22'1 2.6
2017-Oct-10 06:01N 37°07' E 025°23'1217.9
2017-Oct-10 05:21N 37°10' E 025°37'6 0.8
2017-Oct-09 22:00N 37°07' E 025°44'1019.3
2017-Oct-09 21:28N 37°12' E 025°34'817.7
2017-Oct-09 21:01N 37°09' E 025°24'3 6.3
2017-Oct-09 20:31N 37°06' E 025°22'612.0
2017-Oct-09 20:00N 37°10' E 025°16'8 8.3
2017-Oct-09 19:04N 37°05' E 025°09'114.6
2017-Oct-09 19:00N 37°05' E 025°08'1121.1
2017-Oct-09 18:30N 37°12' E 024°57'1121.3
2017-Oct-09 18:00N 37°18' E 024°46'5121.1
2017-Oct-09 15:35N 37°38' E 023°47'221.9
2017-Oct-09 15:30N 37°39' E 023°45'1021.1
2017-Oct-09 15:00N 37°48' E 023°38'917.7
2017-Oct-09 14:30N 37°57' E 023°38'0 0.1
2017-Oct-09 14:00N 37°57' E 023°38'0 0.0
2017-Oct-09 13:30N 37°57' E 023°38'0 0.0
2017-Oct-09 13:00N 37°57' E 023°38'0 0.0
2017-Oct-09 12:30N 37°57' E 023°38'1 2.8
2017-Oct-09 12:01N 37°56' E 023°37'1020.3
2017-Oct-09 11:30N 37°47' E 023°42'5721.3
2017-Oct-09 08:49N 37°19' E 024°45'722.4
2017-Oct-09 08:30N 37°15' E 024°52'1122.5
2017-Oct-09 08:00N 37°08' E 025°04'5 7.2
2017-Oct-09 07:21N 37°05' E 025°09'512.8
2017-Oct-09 07:00N 37°09' E 025°12'816.8
2017-Oct-09 06:31N 37°06' E 025°22'3 6.8
2017-Oct-09 06:00N 37°04' E 025°19'5 0.6
2017-Oct-08 21:44N 36°59' E 025°21'419.1
2017-Oct-08 21:30N 37°03' E 025°18'5 9.7
2017-Oct-08 21:00N 37°06' E 025°22'816.5
2017-Oct-08 20:30N 37°10' E 025°13'5 8.2
2017-Oct-08 19:51N 37°05' E 025°09'619.0
2017-Oct-08 19:31N 37°11' E 025°05'1122.2
2017-Oct-08 19:00N 37°21' E 024°60'6 9.9
2017-Oct-08 18:27N 37°26' E 024°57'613.4
2017-Oct-08 17:59N 37°32' E 024°52'  

Dump ship's entire track history